createdAt,value
2023-05-10T00:01:14.300Z,11.03
2023-05-10T00:03:41.451Z,10.98
2023-05-10T00:06:08.191Z,10.92
2023-05-10T00:08:34.756Z,10.91
2023-05-10T00:11:01.495Z,10.87
2023-05-10T00:13:28.222Z,10.81
2023-05-10T00:15:54.969Z,10.78
2023-05-10T00:18:21.543Z,10.73
2023-05-10T00:20:49.712Z,10.68
2023-05-10T00:23:16.442Z,10.66
2023-05-10T00:25:42.975Z,10.62
2023-05-10T00:28:09.545Z,10.55
2023-05-10T00:30:36.111Z,10.52
2023-05-10T00:33:02.656Z,10.49
2023-05-10T00:35:29.249Z,10.46
2023-05-10T00:41:36.276Z,10.36
2023-05-10T00:44:03.147Z,10.33
2023-05-10T00:46:29.970Z,10.31
2023-05-10T00:48:56.896Z,10.27
2023-05-10T00:51:23.668Z,10.26
2023-05-10T00:53:51.367Z,10.20
2023-05-10T00:56:18.160Z,10.18
2023-05-10T00:58:44.701Z,10.11
2023-05-10T01:01:14.803Z,10.08
2023-05-10T01:03:41.560Z,10.08
2023-05-10T01:06:08.469Z,10.07
2023-05-10T01:08:35.100Z,10.05
2023-05-10T01:11:01.697Z,10.01
2023-05-10T01:13:40.501Z,9.96
2023-05-10T01:16:07.934Z,9.90
2023-05-10T01:18:37.471Z,9.96
2023-05-10T01:21:34.581Z,9.93
2023-05-10T01:24:03.873Z,9.90
2023-05-10T01:26:51.865Z,9.87
2023-05-10T01:29:30.889Z,9.84
2023-05-10T01:32:17.012Z,9.77
2023-05-10T01:34:53.281Z,9.71
2023-05-10T01:37:30.244Z,9.71
2023-05-10T01:40:04.140Z,9.73
2023-05-10T01:42:39.101Z,9.72
2023-05-10T01:45:05.924Z,9.63
2023-05-10T01:47:39.900Z,9.65
2023-05-10T01:50:13.351Z,9.61
2023-05-10T01:52:49.167Z,9.57
2023-05-10T01:55:19.159Z,9.52
2023-05-10T01:57:50.093Z,9.51
2023-05-10T02:00:18.334Z,9.50
2023-05-10T02:02:50.100Z,9.50
2023-05-10T02:05:18.248Z,9.46
2023-05-10T02:07:46.517Z,9.41
2023-05-10T02:10:15.513Z,9.39
2023-05-10T02:12:44.366Z,9.43
2023-05-10T02:15:14.105Z,9.38
2023-05-10T02:17:43.210Z,9.40
2023-05-10T02:20:11.523Z,9.36
2023-05-10T02:22:39.890Z,9.33
2023-05-10T02:25:10.080Z,9.32
2023-05-10T02:27:38.268Z,9.28
2023-05-10T02:30:06.871Z,9.25
2023-05-10T02:32:35.128Z,9.22
2023-05-10T02:35:04.158Z,9.19
2023-05-10T02:37:31.055Z,9.16
2023-05-10T02:39:58.842Z,9.18
2023-05-10T02:42:28.830Z,9.15
2023-05-10T02:45:01.672Z,9.12
2023-05-10T02:47:29.510Z,9.14
2023-05-10T02:49:56.452Z,9.11
2023-05-10T02:52:28.507Z,9.09
2023-05-10T02:55:03.689Z,9.09
2023-05-10T02:57:34.960Z,9.06
2023-05-10T03:00:05.023Z,9.03
2023-05-10T03:02:31.967Z,9.01
2023-05-10T03:04:58.651Z,8.96
2023-05-10T03:07:25.366Z,8.97
2023-05-10T03:09:52.220Z,8.99
2023-05-10T03:12:30.597Z,8.96
2023-05-10T03:15:20.469Z,8.94
2023-05-10T03:17:49.761Z,8.91
2023-05-10T03:20:26.494Z,8.92
2023-05-10T03:22:57.480Z,8.87
2023-05-10T03:25:24.573Z,8.85
2023-05-10T03:27:51.328Z,8.85
2023-05-10T03:30:18.682Z,8.84
2023-05-10T03:32:45.549Z,8.81
2023-05-10T03:35:14.304Z,8.77
2023-05-10T03:37:40.964Z,8.78
2023-05-10T03:40:08.397Z,8.75
2023-05-10T03:42:34.891Z,8.72
2023-05-10T03:45:01.413Z,8.68
2023-05-10T03:47:27.932Z,8.67
2023-05-10T03:49:54.441Z,8.66
2023-05-10T03:52:20.997Z,8.60
2023-05-10T03:54:47.470Z,8.58
2023-05-10T03:57:14.029Z,8.55
2023-05-10T03:59:40.705Z,8.51
2023-05-10T04:02:07.286Z,8.50
2023-05-10T04:04:33.805Z,8.48
2023-05-10T04:07:00.315Z,8.43
2023-05-10T04:09:26.972Z,8.44
2023-05-10T04:11:53.547Z,8.46
2023-05-10T04:14:20.084Z,8.43
2023-05-10T04:16:46.636Z,8.38
2023-05-10T04:19:13.349Z,8.40
2023-05-10T04:21:39.960Z,8.43
2023-05-10T04:24:06.582Z,8.33
2023-05-10T04:26:33.042Z,8.33
2023-05-10T04:28:59.757Z,8.28
2023-05-10T04:31:27.119Z,8.28
2023-05-10T04:33:54.038Z,8.28
2023-05-10T04:36:20.640Z,8.28
2023-05-10T04:38:48.572Z,8.27
2023-05-10T04:41:15.076Z,8.25
2023-05-10T04:43:41.809Z,8.24
2023-05-10T04:46:08.630Z,8.26
2023-05-10T04:48:35.341Z,8.28
2023-05-10T04:51:02.229Z,8.28
2023-05-10T04:53:28.715Z,8.30
2023-05-10T04:55:55.292Z,8.28
2023-05-10T04:58:21.981Z,8.29
2023-05-10T05:00:48.493Z,8.30
2023-05-10T05:03:15.074Z,8.33
2023-05-10T05:05:41.795Z,8.32
2023-05-10T05:08:08.360Z,8.33
2023-05-10T05:10:34.834Z,8.38
2023-05-10T05:13:01.515Z,8.38
2023-05-10T05:15:28.449Z,8.40
2023-05-10T05:17:54.998Z,8.44
2023-05-10T05:20:21.575Z,8.48
2023-05-10T05:22:48.058Z,8.50
2023-05-10T05:25:14.870Z,8.54
2023-05-10T05:27:41.402Z,8.55
2023-05-10T05:30:08.785Z,8.54
2023-05-10T05:32:35.416Z,8.59
2023-05-10T05:35:02.046Z,8.61
2023-05-10T05:37:28.532Z,8.62
2023-05-10T05:39:56.075Z,8.64
2023-05-10T05:42:22.726Z,8.67
2023-05-10T05:44:49.253Z,8.68
2023-05-10T05:47:15.829Z,8.70
2023-05-10T05:49:42.426Z,8.72
2023-05-10T05:52:08.998Z,8.74
2023-05-10T05:54:35.550Z,8.77
2023-05-10T05:57:02.201Z,8.78
2023-05-10T05:59:29.198Z,8.82
2023-05-10T06:01:55.776Z,8.85
2023-05-10T06:04:22.549Z,8.89
2023-05-10T06:06:49.473Z,8.93
2023-05-10T06:09:16.135Z,8.95
2023-05-10T06:11:42.743Z,9.00
2023-05-10T06:14:09.321Z,9.01
2023-05-10T06:16:35.994Z,9.07
2023-05-10T06:19:03.321Z,9.11
2023-05-10T06:21:30.119Z,9.12
2023-05-10T06:23:56.720Z,9.17
2023-05-10T06:26:23.268Z,9.19
2023-05-10T06:28:49.762Z,9.24
2023-05-10T06:31:17.083Z,9.27
2023-05-10T06:33:43.715Z,9.30
2023-05-10T06:36:10.308Z,9.35
2023-05-10T06:38:37.051Z,9.38
2023-05-10T06:41:03.637Z,9.44
2023-05-10T06:43:30.236Z,9.46
2023-05-10T06:45:56.963Z,9.50
2023-05-10T06:48:23.643Z,9.55
2023-05-10T06:50:50.567Z,9.60
2023-05-10T06:53:17.255Z,9.63
2023-05-10T06:55:44.077Z,9.68
2023-05-10T06:58:10.593Z,9.74
2023-05-10T07:00:41.439Z,9.79
2023-05-10T07:03:08.318Z,9.83
2023-05-10T07:05:35.336Z,9.89
2023-05-10T07:08:02.090Z,9.94
2023-05-10T07:10:28.674Z,10.02
2023-05-10T07:12:55.347Z,10.10
2023-05-10T07:15:22.100Z,10.15
2023-05-10T07:17:48.678Z,10.22
2023-05-10T07:20:15.487Z,10.28
2023-05-10T07:22:42.049Z,10.39
2023-05-10T07:25:09.005Z,10.48
2023-05-10T07:27:35.568Z,10.59
2023-05-10T07:30:02.571Z,10.71
2023-05-10T07:32:29.236Z,10.82
2023-05-10T07:34:55.823Z,10.95
2023-05-10T07:37:22.356Z,11.08
2023-05-10T07:39:48.874Z,11.19
2023-05-10T07:42:15.420Z,11.32
2023-05-10T07:44:42.836Z,11.46
2023-05-10T07:47:09.473Z,11.59
2023-05-10T07:49:36.710Z,11.73
2023-05-10T07:52:04.999Z,11.86
2023-05-10T07:54:31.695Z,12.01
2023-05-10T07:56:58.328Z,12.16
2023-05-10T07:59:24.826Z,12.32
2023-05-10T08:01:51.556Z,12.49
2023-05-10T08:04:18.142Z,12.66
2023-05-10T08:06:44.704Z,12.85
2023-05-10T08:09:11.919Z,13.05
2023-05-10T08:11:38.447Z,13.26
2023-05-10T08:14:05.078Z,13.47
2023-05-10T08:16:31.747Z,13.70
2023-05-10T08:18:58.371Z,13.90
2023-05-10T08:21:24.983Z,14.10
2023-05-10T08:23:51.622Z,14.30
2023-05-10T08:26:18.122Z,14.51
2023-05-10T08:28:44.616Z,14.74
2023-05-10T08:31:11.682Z,14.95
2023-05-10T08:33:38.204Z,15.16
2023-05-10T08:36:04.967Z,15.39
2023-05-10T08:38:31.689Z,15.61
2023-05-10T08:40:59.775Z,15.87
2023-05-10T08:43:31.179Z,16.11
2023-05-10T08:46:02.382Z,16.34
2023-05-10T08:48:30.666Z,16.53
2023-05-10T08:50:59.874Z,16.74
2023-05-10T08:53:28.301Z,16.87
2023-05-10T08:55:55.457Z,16.95
2023-05-10T08:58:22.038Z,16.98
2023-05-10T09:00:52.090Z,17.01
2023-05-10T09:03:19.074Z,17.03
2023-05-10T09:05:46.178Z,17.03
2023-05-10T09:08:14.376Z,17.07
2023-05-10T09:10:43.193Z,17.13
2023-05-10T09:13:12.579Z,17.20
2023-05-10T09:15:39.594Z,17.29
2023-05-10T09:18:06.520Z,17.39
2023-05-10T09:20:33.283Z,17.49
2023-05-10T09:22:59.843Z,17.58
2023-05-10T09:25:26.426Z,17.67
2023-05-10T09:27:53.121Z,17.77
2023-05-10T09:30:32.204Z,17.85
2023-05-10T09:33:00.654Z,17.94
2023-05-10T09:35:29.793Z,17.98
2023-05-10T09:37:58.412Z,18.03
2023-05-10T09:40:26.887Z,18.07
2023-05-10T09:42:59.360Z,18.07
2023-05-10T09:45:31.141Z,18.09
2023-05-10T09:47:58.805Z,18.19
2023-05-10T09:50:26.548Z,18.29
2023-05-10T09:52:55.457Z,18.44
2023-05-10T09:55:24.745Z,18.59
2023-05-10T09:58:01.232Z,18.77
2023-05-10T10:00:28.630Z,18.98
2023-05-10T10:02:57.330Z,19.17
2023-05-10T10:05:46.339Z,19.38
2023-05-10T10:08:14.167Z,19.54
2023-05-10T10:10:41.701Z,19.66
2023-05-10T10:13:09.102Z,19.76
2023-05-10T10:15:36.524Z,19.86
2023-05-10T10:18:05.228Z,20.00
2023-05-10T10:20:32.162Z,20.14
2023-05-10T10:22:58.665Z,20.27
2023-05-10T10:25:26.127Z,20.42
2023-05-10T10:27:52.599Z,20.56
2023-05-10T10:30:31.228Z,20.68
2023-05-10T10:33:20.247Z,20.77
2023-05-10T10:35:55.433Z,20.83
2023-05-10T10:38:23.027Z,20.87
2023-05-10T10:41:03.285Z,20.88
2023-05-10T10:43:30.472Z,20.85
2023-05-10T10:46:17.005Z,20.84
2023-05-10T10:49:11.074Z,20.80
2023-05-10T10:51:41.723Z,20.77
2023-05-10T10:54:12.579Z,20.76
2023-05-10T10:56:39.376Z,20.80
2023-05-10T10:59:05.916Z,20.86
2023-05-10T11:01:38.202Z,20.94
2023-05-10T11:04:04.762Z,21.02
2023-05-10T11:06:35.369Z,21.08
2023-05-10T11:09:13.366Z,21.15
2023-05-10T11:11:53.616Z,21.18
2023-05-10T11:14:23.812Z,21.21
2023-05-10T11:16:50.710Z,21.24
2023-05-10T11:19:18.739Z,21.26
2023-05-10T11:22:14.813Z,21.30
2023-05-10T11:24:41.498Z,21.34
2023-05-10T11:27:08.202Z,21.43
2023-05-10T11:29:34.759Z,21.52
2023-05-10T11:32:01.319Z,21.65
2023-05-10T11:34:36.065Z,21.79
2023-05-10T11:37:02.873Z,21.92
2023-05-10T11:39:33.132Z,22.08
2023-05-10T11:42:00.294Z,22.25
2023-05-10T11:44:33.602Z,22.41
2023-05-10T11:47:04.263Z,22.58
2023-05-10T11:49:31.152Z,22.73
2023-05-10T11:52:08.546Z,22.87
2023-05-10T11:54:38.002Z,23.02
2023-05-10T11:57:04.877Z,23.16
2023-05-10T11:59:31.628Z,23.33
2023-05-10T12:01:58.343Z,23.48
2023-05-10T12:04:25.460Z,23.65
2023-05-10T12:06:52.068Z,23.76
2023-05-10T12:09:23.065Z,23.92
2023-05-10T12:11:58.406Z,24.10
2023-05-10T12:14:25.438Z,24.23
2023-05-10T12:16:52.292Z,24.31
2023-05-10T12:19:22.257Z,24.40
2023-05-10T12:21:49.203Z,24.30
2023-05-10T12:24:18.839Z,23.11
2023-05-10T12:26:47.031Z,22.75
2023-05-10T12:29:18.409Z,23.00
2023-05-10T12:31:59.756Z,23.35
2023-05-10T12:34:27.438Z,23.53
2023-05-10T12:36:54.889Z,23.59
2023-05-10T12:39:21.432Z,23.54
2023-05-10T12:41:48.074Z,23.28
2023-05-10T12:44:14.593Z,22.75
2023-05-10T12:46:41.132Z,22.25
2023-05-10T12:49:09.324Z,21.85
2023-05-10T12:51:36.237Z,21.53
2023-05-10T12:54:04.339Z,21.25
2023-05-10T12:56:31.031Z,21.05
2023-05-10T12:58:57.526Z,20.89
2023-05-10T13:01:26.116Z,20.75
2023-05-10T13:03:52.728Z,20.59
2023-05-10T13:06:19.264Z,20.49
2023-05-10T13:08:45.735Z,20.40
2023-05-10T13:11:12.419Z,20.34
2023-05-10T13:13:38.925Z,20.33
2023-05-10T13:16:05.778Z,20.32
2023-05-10T13:18:32.401Z,20.34
2023-05-10T13:20:58.906Z,20.41
2023-05-10T13:23:25.417Z,20.49
2023-05-10T13:25:51.959Z,20.58
2023-05-10T13:28:18.422Z,20.67
2023-05-10T13:30:44.971Z,20.77
2023-05-10T13:33:11.457Z,20.93
2023-05-10T13:35:38.018Z,21.10
2023-05-10T13:38:04.626Z,21.19
2023-05-10T13:40:31.192Z,21.22
2023-05-10T13:42:57.711Z,21.21
2023-05-10T13:45:24.326Z,21.17
2023-05-10T13:47:51.067Z,21.12
2023-05-10T13:50:17.977Z,21.04
2023-05-10T13:52:44.762Z,20.94
2023-05-10T13:55:13.406Z,20.82
2023-05-10T13:57:39.937Z,20.64
2023-05-10T14:00:07.297Z,20.50
2023-05-10T14:02:33.962Z,20.36
2023-05-10T14:05:01.147Z,20.23
2023-05-10T14:07:27.672Z,20.11
2023-05-10T14:09:54.241Z,19.99
2023-05-10T14:12:20.716Z,19.89
2023-05-10T14:14:47.210Z,19.79
2023-05-10T14:17:13.790Z,19.72
2023-05-10T14:19:40.436Z,19.70
2023-05-10T14:22:07.027Z,19.66
2023-05-10T14:24:33.747Z,19.61
2023-05-10T14:27:00.250Z,19.58
2023-05-10T14:29:27.127Z,19.56
2023-05-10T14:31:54.821Z,19.60
2023-05-10T14:34:21.457Z,19.61
2023-05-10T14:36:48.020Z,19.65
2023-05-10T14:39:14.608Z,19.68
2023-05-10T14:41:43.904Z,19.70
2023-05-10T14:44:11.077Z,19.75
2023-05-10T14:46:37.937Z,19.80
2023-05-10T14:49:04.488Z,19.85
2023-05-10T14:51:31.009Z,19.89
2023-05-10T14:53:57.479Z,19.92
2023-05-10T14:56:23.941Z,19.95
2023-05-10T14:58:51.084Z,19.97
2023-05-10T15:01:18.195Z,19.98
2023-05-10T15:03:45.374Z,19.98
2023-05-10T15:06:12.284Z,19.98
2023-05-10T15:08:38.768Z,19.98
2023-05-10T15:11:05.342Z,19.98
2023-05-10T15:13:31.866Z,19.96
2023-05-10T15:15:58.389Z,19.94
2023-05-10T15:18:25.051Z,19.89
2023-05-10T15:20:51.610Z,19.86
2023-05-10T15:23:18.133Z,19.81
2023-05-10T15:25:44.728Z,19.77
2023-05-10T15:28:11.316Z,19.70
2023-05-10T15:30:37.811Z,19.65
2023-05-10T15:33:04.418Z,19.61
2023-05-10T15:35:30.981Z,19.57
2023-05-10T15:37:57.515Z,19.58
2023-05-10T15:40:24.105Z,19.55
2023-05-10T15:42:50.671Z,19.55
2023-05-10T15:45:17.722Z,19.52
2023-05-10T15:47:45.149Z,19.53
2023-05-10T15:50:12.629Z,19.55
2023-05-10T15:52:39.293Z,19.54
2023-05-10T15:55:12.767Z,19.53
2023-05-10T15:57:41.640Z,19.50
2023-05-10T16:00:13.351Z,19.46
2023-05-10T16:02:41.112Z,19.36
2023-05-10T16:05:08.425Z,19.21
2023-05-10T16:07:35.132Z,19.04
2023-05-10T16:10:04.204Z,18.88
2023-05-10T16:12:31.471Z,18.73
2023-05-10T16:14:58.127Z,18.55
2023-05-10T16:17:24.869Z,18.44
2023-05-10T16:19:51.584Z,18.38
2023-05-10T16:22:18.204Z,18.32
2023-05-10T16:24:44.771Z,18.29
2023-05-10T16:27:13.229Z,18.27
2023-05-10T16:29:39.793Z,18.24
2023-05-10T16:32:06.368Z,18.21
2023-05-10T16:34:32.858Z,18.18
2023-05-10T16:36:59.390Z,18.12
2023-05-10T16:39:25.988Z,18.04
2023-05-10T16:41:52.514Z,18.00
2023-05-10T16:44:20.783Z,17.96
2023-05-10T16:46:48.401Z,17.89
2023-05-10T16:49:14.995Z,17.83
2023-05-10T16:51:41.575Z,17.84
2023-05-10T16:54:08.092Z,17.89
2023-05-10T16:56:34.632Z,17.96
2023-05-10T16:59:01.286Z,17.97
2023-05-10T17:01:27.927Z,18.00
2023-05-10T17:03:54.667Z,18.03
2023-05-10T17:06:21.512Z,18.08
2023-05-10T17:08:48.233Z,18.13
2023-05-10T17:11:14.797Z,18.16
2023-05-10T17:13:41.301Z,18.20
2023-05-10T17:16:08.323Z,18.21
2023-05-10T17:18:35.098Z,18.23
2023-05-10T17:21:01.720Z,18.22
2023-05-10T17:23:28.290Z,18.19
2023-05-10T17:25:54.780Z,18.17
2023-05-10T17:28:21.774Z,18.14
2023-05-10T17:30:55.711Z,18.13
2023-05-10T17:33:22.287Z,18.08
2023-05-10T17:35:49.049Z,18.01
2023-05-10T17:38:15.614Z,17.92
2023-05-10T17:40:42.579Z,17.80
2023-05-10T17:43:09.241Z,17.72
2023-05-10T17:45:36.432Z,17.63
2023-05-10T17:48:04.201Z,17.53
2023-05-10T17:50:32.629Z,17.48
2023-05-10T17:52:59.121Z,17.42
2023-05-10T17:55:27.157Z,17.36
2023-05-10T17:57:53.757Z,17.33
2023-05-10T18:00:20.585Z,17.27
2023-05-10T18:02:47.189Z,17.18
2023-05-10T18:05:14.031Z,17.09
2023-05-10T18:07:40.627Z,17.02
2023-05-10T18:10:07.886Z,16.96
2023-05-10T18:12:34.384Z,16.88
2023-05-10T18:15:00.857Z,16.84
2023-05-10T18:17:27.865Z,16.82
2023-05-10T18:19:54.541Z,16.77
2023-05-10T18:22:21.285Z,16.72
2023-05-10T18:24:47.887Z,16.66
2023-05-10T18:27:14.400Z,16.64
2023-05-10T18:29:40.944Z,16.61
2023-05-10T18:32:07.457Z,16.53
2023-05-10T18:34:34.005Z,16.50
2023-05-10T18:37:00.606Z,16.47
2023-05-10T18:39:27.135Z,16.45
2023-05-10T18:41:53.828Z,16.42
2023-05-10T18:44:21.910Z,16.35
2023-05-10T18:46:48.495Z,16.31
2023-05-10T18:49:15.040Z,16.28
2023-05-10T18:51:41.525Z,16.24
2023-05-10T18:54:08.034Z,16.20
2023-05-10T18:56:34.558Z,16.14
2023-05-10T18:59:01.543Z,16.10
2023-05-10T19:01:28.150Z,16.08
2023-05-10T19:03:54.830Z,16.01
2023-05-10T19:06:21.372Z,15.97
2023-05-10T19:08:48.039Z,15.90
2023-05-10T19:11:14.580Z,15.84
2023-05-10T19:13:41.184Z,15.76
2023-05-10T19:16:16.168Z,15.69
2023-05-10T19:18:45.250Z,15.65
2023-05-10T19:21:11.944Z,15.60
2023-05-10T19:23:42.080Z,15.57
2023-05-10T19:26:10.371Z,15.53
2023-05-10T19:28:37.430Z,15.50
2023-05-10T19:31:04.119Z,15.47
2023-05-10T19:33:30.758Z,15.38
2023-05-10T19:35:57.414Z,15.35
2023-05-10T19:38:25.512Z,15.31
2023-05-10T19:40:59.243Z,15.30
2023-05-10T19:43:31.232Z,15.24
2023-05-10T19:46:00.169Z,15.20
2023-05-10T19:48:27.670Z,15.17
2023-05-10T19:50:59.423Z,15.15
2023-05-10T19:53:26.049Z,15.13
2023-05-10T19:55:52.535Z,15.08
2023-05-10T19:58:19.092Z,15.08
2023-05-10T20:00:46.437Z,15.03
2023-05-10T20:03:13.097Z,14.99
2023-05-10T20:05:39.671Z,14.99
2023-05-10T20:08:06.189Z,14.97
2023-05-10T20:10:32.844Z,14.94
2023-05-10T20:13:00.433Z,14.95
2023-05-10T20:15:29.606Z,14.89
2023-05-10T20:17:56.206Z,14.89
2023-05-10T20:20:22.764Z,14.86
2023-05-10T20:22:49.773Z,14.82
2023-05-10T20:25:17.200Z,14.82
2023-05-10T20:27:43.778Z,14.77
2023-05-10T20:30:10.969Z,14.77
2023-05-10T20:32:38.086Z,14.73
2023-05-10T20:35:05.808Z,14.73
2023-05-10T20:37:32.731Z,14.69
2023-05-10T20:39:59.272Z,14.67
2023-05-10T20:42:25.839Z,14.65
2023-05-10T20:44:52.448Z,14.64
2023-05-10T20:47:19.414Z,14.60
2023-05-10T20:49:46.121Z,14.60
2023-05-10T20:52:12.828Z,14.58
2023-05-10T20:54:39.375Z,14.54
2023-05-10T20:57:06.024Z,14.51
2023-05-10T20:59:32.513Z,14.51
2023-05-10T21:01:59.343Z,14.48
2023-05-10T21:04:26.086Z,14.46
2023-05-10T21:06:53.283Z,14.45
2023-05-10T21:09:19.938Z,14.45
2023-05-10T21:11:46.671Z,14.43
2023-05-10T21:14:13.281Z,14.42
2023-05-10T21:16:40.156Z,14.40
2023-05-10T21:19:09.957Z,14.38
2023-05-10T21:21:36.562Z,14.34
2023-05-10T21:24:03.513Z,14.31
2023-05-10T21:26:30.076Z,14.29
2023-05-10T21:28:58.161Z,14.23
2023-05-10T21:31:24.974Z,14.21
2023-05-10T21:33:51.679Z,14.20
2023-05-10T21:36:18.206Z,14.14
2023-05-10T21:38:45.152Z,14.14
2023-05-10T21:41:11.811Z,14.11
2023-05-10T21:43:38.366Z,14.07
2023-05-10T21:46:04.949Z,14.01
2023-05-10T21:48:31.489Z,14.00
2023-05-10T21:50:58.021Z,13.96
2023-05-10T21:53:24.588Z,13.95
2023-05-10T21:55:51.128Z,13.91
2023-05-10T21:58:17.841Z,13.90
2023-05-10T22:00:44.390Z,13.87
2023-05-10T22:03:11.132Z,13.83
2023-05-10T22:05:38.729Z,13.79
2023-05-10T22:08:06.595Z,13.76
2023-05-10T22:10:33.164Z,13.70
2023-05-10T22:13:00.201Z,13.65
2023-05-10T22:15:27.240Z,13.57
2023-05-10T22:17:53.971Z,13.55
2023-05-10T22:20:22.108Z,13.48
2023-05-10T22:22:48.926Z,13.50
2023-05-10T22:25:15.607Z,13.47
2023-05-10T22:27:42.272Z,13.38
2023-05-10T22:30:09.346Z,13.40
2023-05-10T22:32:35.956Z,13.41
2023-05-10T22:35:03.236Z,13.42
2023-05-10T22:37:29.833Z,13.37
2023-05-10T22:39:56.566Z,13.33
2023-05-10T22:42:23.131Z,13.32
2023-05-10T22:44:49.618Z,13.28
2023-05-10T22:47:16.710Z,13.27
2023-05-10T22:49:43.273Z,13.25
2023-05-10T22:52:11.298Z,13.21
2023-05-10T22:54:37.889Z,13.20
2023-05-10T22:57:04.623Z,13.15
2023-05-10T22:59:31.512Z,13.12
2023-05-10T23:01:58.321Z,13.09
2023-05-10T23:04:24.935Z,13.10
2023-05-10T23:06:51.517Z,13.09
2023-05-10T23:09:18.311Z,13.07
2023-05-10T23:11:44.958Z,13.06
2023-05-10T23:14:11.855Z,13.07
2023-05-10T23:16:38.458Z,13.04
2023-05-10T23:19:05.447Z,13.01
2023-05-10T23:21:32.284Z,12.98
2023-05-10T23:23:59.437Z,12.94
2023-05-10T23:26:25.988Z,12.94
2023-05-10T23:28:52.624Z,12.88
2023-05-10T23:31:19.272Z,12.86
2023-05-10T23:33:45.860Z,12.80
2023-05-10T23:36:12.489Z,12.72
2023-05-10T23:38:39.451Z,12.69
2023-05-10T23:41:05.977Z,12.66
2023-05-10T23:43:32.491Z,12.64
2023-05-10T23:45:59.442Z,12.57
2023-05-10T23:48:26.095Z,12.47
2023-05-10T23:50:52.931Z,12.41
2023-05-10T23:53:19.555Z,12.38
2023-05-10T23:55:46.140Z,12.34
2023-05-10T23:58:12.756Z,12.30
